sensor_id;sensor_type;location;lat;lon;timestamp;temperature;humidity
15819;DHT22;8010;53.986;12.106;2023-08-12T00:01:03;17.00;99.90
15819;DHT22;8010;53.986;12.106;2023-08-12T00:03:29;17.00;99.90
15819;DHT22;8010;53.986;12.106;2023-08-12T00:05:55;17.00;99.90
15819;DHT22;8010;53.986;12.106;2023-08-12T00:08:21;16.90;99.90
15819;DHT22;8010;53.986;12.106;2023-08-12T00:10:47;16.80;99.90
15819;DHT22;8010;53.986;12.106;2023-08-12T00:13:13;16.80;99.90
15819;DHT22;8010;53.986;12.106;2023-08-12T00:15:43;16.70;99.90
15819;DHT22;8010;53.986;12.106;2023-08-12T00:18:08;16.70;99.90
15819;DHT22;8010;53.986;12.106;2023-08-12T00:20:34;16.60;99.90
15819;DHT22;8010;53.986;12.106;2023-08-12T00:23:00;16.60;99.90
15819;DHT22;8010;53.986;12.106;2023-08-12T00:25:25;16.60;99.90
15819;DHT22;8010;53.986;12.106;2023-08-12T00:27:51;16.60;99.90
15819;DHT22;8010;53.986;12.106;2023-08-12T00:30:17;16.50;99.90
15819;DHT22;8010;53.986;12.106;2023-08-12T00:32:42;16.50;99.90
15819;DHT22;8010;53.986;12.106;2023-08-12T00:35:08;16.50;99.90
15819;DHT22;8010;53.986;12.106;2023-08-12T00:37:34;16.50;99.90
15819;DHT22;8010;53.986;12.106;2023-08-12T00:39:59;16.50;99.90
15819;DHT22;8010;53.986;12.106;2023-08-12T00:42:25;16.40;99.90
15819;DHT22;8010;53.986;12.106;2023-08-12T00:44:50;16.40;99.90
15819;DHT22;8010;53.986;12.106;2023-08-12T00:47:16;16.40;99.90
15819;DHT22;8010;53.986;12.106;2023-08-12T00:49:42;16.40;99.90
15819;DHT22;8010;53.986;12.106;2023-08-12T00:52:11;16.40;99.90
15819;DHT22;8010;53.986;12.106;2023-08-12T00:54:37;16.30;99.90
15819;DHT22;8010;53.986;12.106;2023-08-12T00:57:03;16.30;99.90
15819;DHT22;8010;53.986;12.106;2023-08-12T00:59:29;16.30;99.90
15819;DHT22;8010;53.986;12.106;2023-08-12T01:01:54;16.30;99.90
15819;DHT22;8010;53.986;12.106;2023-08-12T01:04:20;16.40;99.90
15819;DHT22;8010;53.986;12.106;2023-08-12T01:06:46;16.30;99.90
15819;DHT22;8010;53.986;12.106;2023-08-12T01:09:11;16.30;99.90
15819;DHT22;8010;53.986;12.106;2023-08-12T01:11:46;16.30;99.90
15819;DHT22;8010;53.986;12.106;2023-08-12T01:14:19;16.30;99.90
15819;DHT22;8010;53.986;12.106;2023-08-12T01:16:51;16.30;99.90
15819;DHT22;8010;53.986;12.106;2023-08-12T01:19:29;16.40;99.90
15819;DHT22;8010;53.986;12.106;2023-08-12T01:21:55;16.30;99.90
15819;DHT22;8010;53.986;12.106;2023-08-12T01:24:24;16.20;99.90
15819;DHT22;8010;53.986;12.106;2023-08-12T01:26:50;16.30;99.90
15819;DHT22;8010;53.986;12.106;2023-08-12T01:29:17;16.30;99.90
15819;DHT22;8010;53.986;12.106;2023-08-12T01:31:52;16.30;99.90
15819;DHT22;8010;53.986;12.106;2023-08-12T01:36:56;16.30;99.90
15819;DHT22;8010;53.986;12.106;2023-08-12T01:39:23;16.40;99.90
15819;DHT22;8010;53.986;12.106;2023-08-12T01:41:50;16.40;99.90
15819;DHT22;8010;53.986;12.106;2023-08-12T01:44:16;16.40;99.90
15819;DHT22;8010;53.986;12.106;2023-08-12T01:46:43;16.50;99.90
15819;DHT22;8010;53.986;12.106;2023-08-12T01:49:09;16.40;99.90
15819;DHT22;8010;53.986;12.106;2023-08-12T01:51:35;16.50;99.90
15819;DHT22;8010;53.986;12.106;2023-08-12T01:54:00;16.40;99.90
15819;DHT22;8010;53.986;12.106;2023-08-12T01:56:26;16.40;99.90
15819;DHT22;8010;53.986;12.106;2023-08-12T01:58:51;16.40;99.90
15819;DHT22;8010;53.986;12.106;2023-08-12T02:01:17;16.50;99.90
15819;DHT22;8010;53.986;12.106;2023-08-12T02:03:42;16.50;99.90
15819;DHT22;8010;53.986;12.106;2023-08-12T02:06:08;16.40;99.90
15819;DHT22;8010;53.986;12.106;2023-08-12T02:08:33;16.40;99.90
15819;DHT22;8010;53.986;12.106;2023-08-12T02:10:59;16.40;99.90
15819;DHT22;8010;53.986;12.106;2023-08-12T02:13:24;16.40;99.90
15819;DHT22;8010;53.986;12.106;2023-08-12T02:15:50;16.40;99.90
15819;DHT22;8010;53.986;12.106;2023-08-12T02:18:15;16.40;99.90
15819;DHT22;8010;53.986;12.106;2023-08-12T02:20:41;16.40;99.90
15819;DHT22;8010;53.986;12.106;2023-08-12T02:23:06;16.30;99.90
15819;DHT22;8010;53.986;12.106;2023-08-12T02:25:32;16.30;99.90
15819;DHT22;8010;53.986;12.106;2023-08-12T02:27:58;16.30;99.90
15819;DHT22;8010;53.986;12.106;2023-08-12T02:30:23;16.30;99.90
15819;DHT22;8010;53.986;12.106;2023-08-12T02:32:49;16.30;99.90
15819;DHT22;8010;53.986;12.106;2023-08-12T02:35:16;16.30;99.90
15819;DHT22;8010;53.986;12.106;2023-08-12T02:37:42;16.30;99.90
15819;DHT22;8010;53.986;12.106;2023-08-12T02:40:08;16.20;99.90
15819;DHT22;8010;53.986;12.106;2023-08-12T02:42:34;16.20;99.90
15819;DHT22;8010;53.986;12.106;2023-08-12T02:44:59;16.20;99.90
15819;DHT22;8010;53.986;12.106;2023-08-12T02:47:26;16.20;99.90
15819;DHT22;8010;53.986;12.106;2023-08-12T02:49:51;16.20;99.90
15819;DHT22;8010;53.986;12.106;2023-08-12T02:52:17;16.30;99.90
15819;DHT22;8010;53.986;12.106;2023-08-12T02:54:42;16.30;99.90
15819;DHT22;8010;53.986;12.106;2023-08-12T02:57:08;16.40;99.90
15819;DHT22;8010;53.986;12.106;2023-08-12T02:59:33;16.40;99.90
15819;DHT22;8010;53.986;12.106;2023-08-12T03:01:59;16.40;99.90
15819;DHT22;8010;53.986;12.106;2023-08-12T03:04:25;16.40;99.90
15819;DHT22;8010;53.986;12.106;2023-08-12T03:06:50;16.40;99.90
15819;DHT22;8010;53.986;12.106;2023-08-12T03:09:16;16.30;99.90
15819;DHT22;8010;53.986;12.106;2023-08-12T03:11:43;16.30;99.90
15819;DHT22;8010;53.986;12.106;2023-08-12T03:14:09;16.30;99.90
15819;DHT22;8010;53.986;12.106;2023-08-12T03:16:35;16.30;99.90
15819;DHT22;8010;53.986;12.106;2023-08-12T03:19:00;16.20;99.90
15819;DHT22;8010;53.986;12.106;2023-08-12T03:21:26;16.20;99.90
15819;DHT22;8010;53.986;12.106;2023-08-12T03:23:51;16.20;99.90
15819;DHT22;8010;53.986;12.106;2023-08-12T03:26:17;16.20;99.90
15819;DHT22;8010;53.986;12.106;2023-08-12T03:28:42;16.20;99.90
15819;DHT22;8010;53.986;12.106;2023-08-12T03:31:08;16.20;99.90
15819;DHT22;8010;53.986;12.106;2023-08-12T03:33:33;16.20;99.90
15819;DHT22;8010;53.986;12.106;2023-08-12T03:35:59;16.20;99.90
15819;DHT22;8010;53.986;12.106;2023-08-12T03:38:25;16.20;99.90
15819;DHT22;8010;53.986;12.106;2023-08-12T03:40:50;16.20;99.90
15819;DHT22;8010;53.986;12.106;2023-08-12T03:43:16;16.20;99.90
15819;DHT22;8010;53.986;12.106;2023-08-12T03:45:45;16.30;99.90
15819;DHT22;8010;53.986;12.106;2023-08-12T03:48:11;16.20;99.90
15819;DHT22;8010;53.986;12.106;2023-08-12T03:50:37;16.20;99.90
15819;DHT22;8010;53.986;12.106;2023-08-12T03:53:03;16.30;99.90
15819;DHT22;8010;53.986;12.106;2023-08-12T03:55:33;16.30;99.90
15819;DHT22;8010;53.986;12.106;2023-08-12T03:57:59;16.30;99.90
15819;DHT22;8010;53.986;12.106;2023-08-12T04:00:25;16.30;99.90
15819;DHT22;8010;53.986;12.106;2023-08-12T04:02:50;16.30;99.90
15819;DHT22;8010;53.986;12.106;2023-08-12T04:05:16;16.30;99.90
15819;DHT22;8010;53.986;12.106;2023-08-12T04:07:42;16.30;99.90
15819;DHT22;8010;53.986;12.106;2023-08-12T04:10:08;16.40;99.90
15819;DHT22;8010;53.986;12.106;2023-08-12T04:12:33;16.40;99.90
15819;DHT22;8010;53.986;12.106;2023-08-12T04:14:59;16.40;99.90
15819;DHT22;8010;53.986;12.106;2023-08-12T04:17:26;16.40;99.90
15819;DHT22;8010;53.986;12.106;2023-08-12T04:19:51;16.40;99.90
15819;DHT22;8010;53.986;12.106;2023-08-12T04:22:17;16.40;99.90
15819;DHT22;8010;53.986;12.106;2023-08-12T04:24:42;16.50;99.90
15819;DHT22;8010;53.986;12.106;2023-08-12T04:27:08;16.40;99.90
15819;DHT22;8010;53.986;12.106;2023-08-12T04:29:35;16.40;99.90
15819;DHT22;8010;53.986;12.106;2023-08-12T04:32:01;16.50;99.90
15819;DHT22;8010;53.986;12.106;2023-08-12T04:34:26;16.50;99.90
15819;DHT22;8010;53.986;12.106;2023-08-12T04:36:52;16.50;99.90
15819;DHT22;8010;53.986;12.106;2023-08-12T04:39:17;16.50;99.90
15819;DHT22;8010;53.986;12.106;2023-08-12T04:41:43;16.40;99.90
15819;DHT22;8010;53.986;12.106;2023-08-12T04:44:08;16.50;99.90
15819;DHT22;8010;53.986;12.106;2023-08-12T04:46:34;16.50;99.90
15819;DHT22;8010;53.986;12.106;2023-08-12T04:48:59;16.40;99.90
15819;DHT22;8010;53.986;12.106;2023-08-12T04:51:25;16.50;99.90
15819;DHT22;8010;53.986;12.106;2023-08-12T04:53:50;16.40;99.90
15819;DHT22;8010;53.986;12.106;2023-08-12T04:56:16;16.50;99.90
15819;DHT22;8010;53.986;12.106;2023-08-12T04:58:41;16.50;99.90
15819;DHT22;8010;53.986;12.106;2023-08-12T05:01:08;16.50;99.90
15819;DHT22;8010;53.986;12.106;2023-08-12T05:03:33;16.60;99.90
15819;DHT22;8010;53.986;12.106;2023-08-12T05:05:59;16.60;99.90
15819;DHT22;8010;53.986;12.106;2023-08-12T05:08:24;16.70;99.90
15819;DHT22;8010;53.986;12.106;2023-08-12T05:10:50;16.80;99.90
15819;DHT22;8010;53.986;12.106;2023-08-12T05:13:16;16.80;99.90
15819;DHT22;8010;53.986;12.106;2023-08-12T05:15:45;17.00;99.90
15819;DHT22;8010;53.986;12.106;2023-08-12T05:18:11;17.00;99.90
15819;DHT22;8010;53.986;12.106;2023-08-12T05:20:36;17.10;99.90
15819;DHT22;8010;53.986;12.106;2023-08-12T05:23:02;17.20;99.90
15819;DHT22;8010;53.986;12.106;2023-08-12T05:25:27;17.30;99.90
15819;DHT22;8010;53.986;12.106;2023-08-12T05:27:53;17.30;99.90
15819;DHT22;8010;53.986;12.106;2023-08-12T05:30:18;17.30;99.90
15819;DHT22;8010;53.986;12.106;2023-08-12T05:32:44;17.40;99.90
15819;DHT22;8010;53.986;12.106;2023-08-12T05:35:09;17.50;99.90
15819;DHT22;8010;53.986;12.106;2023-08-12T05:37:35;17.50;99.90
15819;DHT22;8010;53.986;12.106;2023-08-12T05:40:01;17.50;99.90
15819;DHT22;8010;53.986;12.106;2023-08-12T05:42:26;17.60;99.90
15819;DHT22;8010;53.986;12.106;2023-08-12T05:44:52;17.60;99.90
15819;DHT22;8010;53.986;12.106;2023-08-12T05:47:17;17.60;99.90
15819;DHT22;8010;53.986;12.106;2023-08-12T05:49:43;17.70;99.90
15819;DHT22;8010;53.986;12.106;2023-08-12T05:52:08;17.70;99.90
15819;DHT22;8010;53.986;12.106;2023-08-12T05:54:34;17.80;99.90
15819;DHT22;8010;53.986;12.106;2023-08-12T05:56:59;17.90;99.90
15819;DHT22;8010;53.986;12.106;2023-08-12T05:59:25;18.00;99.90
15819;DHT22;8010;53.986;12.106;2023-08-12T06:01:51;18.10;99.90
15819;DHT22;8010;53.986;12.106;2023-08-12T06:04:16;18.20;99.90
15819;DHT22;8010;53.986;12.106;2023-08-12T06:06:42;18.20;99.90
15819;DHT22;8010;53.986;12.106;2023-08-12T06:09:07;18.30;99.90
15819;DHT22;8010;53.986;12.106;2023-08-12T06:11:33;18.40;99.90
15819;DHT22;8010;53.986;12.106;2023-08-12T06:13:58;18.50;99.90
15819;DHT22;8010;53.986;12.106;2023-08-12T06:16:24;18.50;99.90
15819;DHT22;8010;53.986;12.106;2023-08-12T06:18:49;18.60;99.90
15819;DHT22;8010;53.986;12.106;2023-08-12T06:21:15;18.70;99.90
15819;DHT22;8010;53.986;12.106;2023-08-12T06:23:41;18.70;99.90
15819;DHT22;8010;53.986;12.106;2023-08-12T06:26:06;18.80;99.90
15819;DHT22;8010;53.986;12.106;2023-08-12T06:28:32;18.90;99.90
15819;DHT22;8010;53.986;12.106;2023-08-12T06:30:57;19.00;99.90
15819;DHT22;8010;53.986;12.106;2023-08-12T06:33:23;19.10;99.90
15819;DHT22;8010;53.986;12.106;2023-08-12T06:35:50;19.30;99.90
15819;DHT22;8010;53.986;12.106;2023-08-12T06:38:16;19.30;99.90
15819;DHT22;8010;53.986;12.106;2023-08-12T06:40:42;19.40;99.90
15819;DHT22;8010;53.986;12.106;2023-08-12T06:43:07;19.40;99.90
15819;DHT22;8010;53.986;12.106;2023-08-12T06:45:34;19.50;99.90
15819;DHT22;8010;53.986;12.106;2023-08-12T06:47:59;19.60;99.90
15819;DHT22;8010;53.986;12.106;2023-08-12T06:50:27;19.60;99.90
15819;DHT22;8010;53.986;12.106;2023-08-12T06:52:53;19.70;99.90
15819;DHT22;8010;53.986;12.106;2023-08-12T06:55:18;19.70;99.90
15819;DHT22;8010;53.986;12.106;2023-08-12T06:57:44;19.70;99.90
15819;DHT22;8010;53.986;12.106;2023-08-12T07:00:09;19.70;99.90
15819;DHT22;8010;53.986;12.106;2023-08-12T07:02:35;19.70;99.90
15819;DHT22;8010;53.986;12.106;2023-08-12T07:05:01;19.80;99.90
15819;DHT22;8010;53.986;12.106;2023-08-12T07:07:26;19.80;99.90
15819;DHT22;8010;53.986;12.106;2023-08-12T07:09:52;19.80;99.90
15819;DHT22;8010;53.986;12.106;2023-08-12T07:12:17;19.80;99.90
15819;DHT22;8010;53.986;12.106;2023-08-12T07:14:43;19.80;99.90
15819;DHT22;8010;53.986;12.106;2023-08-12T07:17:08;19.80;99.90
15819;DHT22;8010;53.986;12.106;2023-08-12T07:19:34;19.80;99.90
15819;DHT22;8010;53.986;12.106;2023-08-12T07:21:59;19.80;99.90
15819;DHT22;8010;53.986;12.106;2023-08-12T07:24:25;19.90;99.90
15819;DHT22;8010;53.986;12.106;2023-08-12T07:26:50;20.00;99.90
15819;DHT22;8010;53.986;12.106;2023-08-12T07:29:16;20.20;99.90
15819;DHT22;8010;53.986;12.106;2023-08-12T07:31:42;20.40;99.90
15819;DHT22;8010;53.986;12.106;2023-08-12T07:34:07;20.60;99.90
15819;DHT22;8010;53.986;12.106;2023-08-12T07:36:33;20.80;99.90
15819;DHT22;8010;53.986;12.106;2023-08-12T07:38:58;21.10;99.90
15819;DHT22;8010;53.986;12.106;2023-08-12T07:41:24;21.30;99.90
15819;DHT22;8010;53.986;12.106;2023-08-12T07:43:52;21.40;99.90
15819;DHT22;8010;53.986;12.106;2023-08-12T07:46:18;21.50;99.90
15819;DHT22;8010;53.986;12.106;2023-08-12T07:48:44;21.50;99.90
15819;DHT22;8010;53.986;12.106;2023-08-12T07:51:09;21.60;99.90
15819;DHT22;8010;53.986;12.106;2023-08-12T07:53:35;21.80;99.90
15819;DHT22;8010;53.986;12.106;2023-08-12T07:56:00;22.10;99.90
15819;DHT22;8010;53.986;12.106;2023-08-12T07:58:26;22.40;99.90
15819;DHT22;8010;53.986;12.106;2023-08-12T08:00:54;22.40;99.90
15819;DHT22;8010;53.986;12.106;2023-08-12T08:03:20;22.50;99.90
15819;DHT22;8010;53.986;12.106;2023-08-12T08:05:45;22.50;99.90
15819;DHT22;8010;53.986;12.106;2023-08-12T08:08:12;22.70;99.90
15819;DHT22;8010;53.986;12.106;2023-08-12T08:10:38;22.80;99.90
15819;DHT22;8010;53.986;12.106;2023-08-12T08:13:03;22.80;99.90
15819;DHT22;8010;53.986;12.106;2023-08-12T08:15:29;22.90;99.90
15819;DHT22;8010;53.986;12.106;2023-08-12T08:17:54;22.90;99.90
15819;DHT22;8010;53.986;12.106;2023-08-12T08:20:20;23.00;99.90
15819;DHT22;8010;53.986;12.106;2023-08-12T08:22:45;22.90;99.90
15819;DHT22;8010;53.986;12.106;2023-08-12T08:25:12;22.90;99.90
15819;DHT22;8010;53.986;12.106;2023-08-12T08:27:38;23.00;99.90
15819;DHT22;8010;53.986;12.106;2023-08-12T08:30:04;23.10;99.90
15819;DHT22;8010;53.986;12.106;2023-08-12T08:32:30;23.20;99.90
15819;DHT22;8010;53.986;12.106;2023-08-12T08:34:55;23.30;99.90
15819;DHT22;8010;53.986;12.106;2023-08-12T08:37:21;23.50;99.90
15819;DHT22;8010;53.986;12.106;2023-08-12T08:39:46;23.70;99.90
15819;DHT22;8010;53.986;12.106;2023-08-12T08:42:12;23.80;99.90
15819;DHT22;8010;53.986;12.106;2023-08-12T08:44:41;23.90;99.90
15819;DHT22;8010;53.986;12.106;2023-08-12T08:47:08;24.00;99.90
15819;DHT22;8010;53.986;12.106;2023-08-12T08:49:34;24.00;99.90
15819;DHT22;8010;53.986;12.106;2023-08-12T08:52:01;24.00;99.90
15819;DHT22;8010;53.986;12.106;2023-08-12T08:54:27;24.00;99.90
15819;DHT22;8010;53.986;12.106;2023-08-12T08:56:53;23.90;99.90
15819;DHT22;8010;53.986;12.106;2023-08-12T08:59:19;24.00;99.90
15819;DHT22;8010;53.986;12.106;2023-08-12T09:01:46;24.10;99.90
15819;DHT22;8010;53.986;12.106;2023-08-12T09:04:15;24.20;99.90
15819;DHT22;8010;53.986;12.106;2023-08-12T09:06:41;24.30;99.90
15819;DHT22;8010;53.986;12.106;2023-08-12T09:09:10;24.50;99.90
15819;DHT22;8010;53.986;12.106;2023-08-12T09:11:38;24.60;99.90
15819;DHT22;8010;53.986;12.106;2023-08-12T09:14:05;24.80;99.90
15819;DHT22;8010;53.986;12.106;2023-08-12T09:16:30;24.90;99.90
15819;DHT22;8010;53.986;12.106;2023-08-12T09:18:56;25.00;99.90
15819;DHT22;8010;53.986;12.106;2023-08-12T09:21:21;25.20;99.90
15819;DHT22;8010;53.986;12.106;2023-08-12T09:23:48;25.30;99.90
15819;DHT22;8010;53.986;12.106;2023-08-12T09:26:15;25.50;99.90
15819;DHT22;8010;53.986;12.106;2023-08-12T09:28:42;25.50;99.90
15819;DHT22;8010;53.986;12.106;2023-08-12T09:31:08;25.70;99.90
15819;DHT22;8010;53.986;12.106;2023-08-12T09:33:39;26.10;99.90
15819;DHT22;8010;53.986;12.106;2023-08-12T09:36:04;26.70;99.90
15819;DHT22;8010;53.986;12.106;2023-08-12T09:38:31;27.00;99.90
15819;DHT22;8010;53.986;12.106;2023-08-12T09:40:56;27.40;99.90
15819;DHT22;8010;53.986;12.106;2023-08-12T09:43:28;27.60;99.90
15819;DHT22;8010;53.986;12.106;2023-08-12T09:45:56;28.00;99.90
15819;DHT22;8010;53.986;12.106;2023-08-12T09:48:23;28.20;99.90
15819;DHT22;8010;53.986;12.106;2023-08-12T09:50:49;28.20;99.90
15819;DHT22;8010;53.986;12.106;2023-08-12T09:53:15;28.10;99.90
15819;DHT22;8010;53.986;12.106;2023-08-12T09:55:42;28.20;99.90
15819;DHT22;8010;53.986;12.106;2023-08-12T09:58:09;28.20;99.90
15819;DHT22;8010;53.986;12.106;2023-08-12T10:00:35;28.60;99.90
15819;DHT22;8010;53.986;12.106;2023-08-12T10:03:02;29.00;99.90
15819;DHT22;8010;53.986;12.106;2023-08-12T10:05:31;29.40;99.90
15819;DHT22;8010;53.986;12.106;2023-08-12T10:07:56;29.60;99.90
15819;DHT22;8010;53.986;12.106;2023-08-12T10:10:23;29.60;99.90
15819;DHT22;8010;53.986;12.106;2023-08-12T10:12:50;29.90;99.90
15819;DHT22;8010;53.986;12.106;2023-08-12T10:15:16;29.80;99.90
15819;DHT22;8010;53.986;12.106;2023-08-12T10:17:42;29.80;99.90
15819;DHT22;8010;53.986;12.106;2023-08-12T10:20:11;29.60;99.90
15819;DHT22;8010;53.986;12.106;2023-08-12T10:22:39;29.70;99.90
15819;DHT22;8010;53.986;12.106;2023-08-12T10:25:07;29.70;99.90
15819;DHT22;8010;53.986;12.106;2023-08-12T10:27:34;29.70;99.90
15819;DHT22;8010;53.986;12.106;2023-08-12T10:30:03;29.50;99.90
15819;DHT22;8010;53.986;12.106;2023-08-12T10:32:30;29.30;99.90
15819;DHT22;8010;53.986;12.106;2023-08-12T10:34:57;29.10;99.90
15819;DHT22;8010;53.986;12.106;2023-08-12T10:37:24;29.20;99.90
15819;DHT22;8010;53.986;12.106;2023-08-12T10:39:50;29.00;99.90
15819;DHT22;8010;53.986;12.106;2023-08-12T10:42:43;28.80;99.90
15819;DHT22;8010;53.986;12.106;2023-08-12T10:45:10;28.70;99.90
15819;DHT22;8010;53.986;12.106;2023-08-12T10:47:41;28.50;99.90
15819;DHT22;8010;53.986;12.106;2023-08-12T10:50:16;28.60;99.90
15819;DHT22;8010;53.986;12.106;2023-08-12T10:52:42;29.00;99.90
15819;DHT22;8010;53.986;12.106;2023-08-12T10:55:24;28.90;99.90
15819;DHT22;8010;53.986;12.106;2023-08-12T10:57:54;28.50;99.90
15819;DHT22;8010;53.986;12.106;2023-08-12T11:02:50;28.20;99.90
15819;DHT22;8010;53.986;12.106;2023-08-12T11:05:16;28.00;99.90
15819;DHT22;8010;53.986;12.106;2023-08-12T11:15:32;28.10;99.90
15819;DHT22;8010;53.986;12.106;2023-08-12T11:17:58;28.10;99.90
15819;DHT22;8010;53.986;12.106;2023-08-12T11:20:25;29.20;99.90
15819;DHT22;8010;53.986;12.106;2023-08-12T11:22:53;28.00;99.90
15819;DHT22;8010;53.986;12.106;2023-08-12T11:25:19;27.80;99.90
15819;DHT22;8010;53.986;12.106;2023-08-12T11:27:46;27.70;99.90
15819;DHT22;8010;53.986;12.106;2023-08-12T11:30:18;27.70;99.90
15819;DHT22;8010;53.986;12.106;2023-08-12T11:32:55;27.80;99.90
15819;DHT22;8010;53.986;12.106;2023-08-12T11:35:23;27.90;99.90
15819;DHT22;8010;53.986;12.106;2023-08-12T11:37:53;29.20;99.90
15819;DHT22;8010;53.986;12.106;2023-08-12T11:40:19;28.50;99.90
15819;DHT22;8010;53.986;12.106;2023-08-12T11:42:46;28.50;99.90
15819;DHT22;8010;53.986;12.106;2023-08-12T11:45:13;28.90;99.90
15819;DHT22;8010;53.986;12.106;2023-08-12T11:47:40;29.20;99.90
15819;DHT22;8010;53.986;12.106;2023-08-12T11:50:08;29.50;99.90
15819;DHT22;8010;53.986;12.106;2023-08-12T11:52:34;29.80;99.90
15819;DHT22;8010;53.986;12.106;2023-08-12T11:55:01;30.10;99.90
15819;DHT22;8010;53.986;12.106;2023-08-12T11:57:27;30.20;99.90
15819;DHT22;8010;53.986;12.106;2023-08-12T12:00:01;30.20;99.90
15819;DHT22;8010;53.986;12.106;2023-08-12T12:02:29;30.50;99.90
15819;DHT22;8010;53.986;12.106;2023-08-12T12:04:55;30.70;99.90
15819;DHT22;8010;53.986;12.106;2023-08-12T12:07:24;30.60;99.90
15819;DHT22;8010;53.986;12.106;2023-08-12T12:09:53;30.50;99.90
15819;DHT22;8010;53.986;12.106;2023-08-12T12:12:25;30.20;99.90
15819;DHT22;8010;53.986;12.106;2023-08-12T12:14:52;30.00;99.90
15819;DHT22;8010;53.986;12.106;2023-08-12T12:17:23;30.00;99.90
15819;DHT22;8010;53.986;12.106;2023-08-12T12:19:56;29.90;99.90
15819;DHT22;8010;53.986;12.106;2023-08-12T12:22:30;30.20;99.90
15819;DHT22;8010;53.986;12.106;2023-08-12T12:25:08;30.40;99.90
15819;DHT22;8010;53.986;12.106;2023-08-12T12:27:34;30.50;99.90
15819;DHT22;8010;53.986;12.106;2023-08-12T12:30:00;30.20;99.90
15819;DHT22;8010;53.986;12.106;2023-08-12T12:32:26;29.70;99.90
15819;DHT22;8010;53.986;12.106;2023-08-12T12:34:52;29.30;99.90
15819;DHT22;8010;53.986;12.106;2023-08-12T12:37:18;28.90;99.90
15819;DHT22;8010;53.986;12.106;2023-08-12T12:39:44;28.60;99.90
15819;DHT22;8010;53.986;12.106;2023-08-12T12:42:10;28.30;99.90
15819;DHT22;8010;53.986;12.106;2023-08-12T12:44:36;28.20;99.90
15819;DHT22;8010;53.986;12.106;2023-08-12T12:47:02;28.20;99.90
15819;DHT22;8010;53.986;12.106;2023-08-12T12:49:28;28.40;99.90
15819;DHT22;8010;53.986;12.106;2023-08-12T12:51:53;28.50;99.90
15819;DHT22;8010;53.986;12.106;2023-08-12T12:54:19;28.70;99.90
15819;DHT22;8010;53.986;12.106;2023-08-12T12:56:45;28.90;99.90
15819;DHT22;8010;53.986;12.106;2023-08-12T12:59:10;29.40;99.90
15819;DHT22;8010;53.986;12.106;2023-08-12T13:01:36;29.40;99.90
15819;DHT22;8010;53.986;12.106;2023-08-12T13:04:02;29.30;99.90
15819;DHT22;8010;53.986;12.106;2023-08-12T13:06:28;29.00;99.90
15819;DHT22;8010;53.986;12.106;2023-08-12T13:08:53;29.00;99.90
15819;DHT22;8010;53.986;12.106;2023-08-12T13:11:19;29.70;99.90
15819;DHT22;8010;53.986;12.106;2023-08-12T13:13:44;29.60;99.90
15819;DHT22;8010;53.986;12.106;2023-08-12T13:16:10;29.90;99.90
15819;DHT22;8010;53.986;12.106;2023-08-12T13:18:36;29.80;99.90
15819;DHT22;8010;53.986;12.106;2023-08-12T13:21:01;29.60;99.90
15819;DHT22;8010;53.986;12.106;2023-08-12T13:23:27;29.40;99.90
15819;DHT22;8010;53.986;12.106;2023-08-12T13:25:52;29.10;99.90
15819;DHT22;8010;53.986;12.106;2023-08-12T13:28:18;28.80;99.90
15819;DHT22;8010;53.986;12.106;2023-08-12T13:30:45;28.50;99.90
15819;DHT22;8010;53.986;12.106;2023-08-12T13:33:11;28.50;99.90
15819;DHT22;8010;53.986;12.106;2023-08-12T13:35:36;28.40;99.90
15819;DHT22;8010;53.986;12.106;2023-08-12T13:38:02;28.20;99.90
15819;DHT22;8010;53.986;12.106;2023-08-12T13:40:28;27.90;99.90
15819;DHT22;8010;53.986;12.106;2023-08-12T13:42:53;27.70;99.90
15819;DHT22;8010;53.986;12.106;2023-08-12T13:45:19;27.50;99.90
15819;DHT22;8010;53.986;12.106;2023-08-12T13:47:44;27.40;99.90
15819;DHT22;8010;53.986;12.106;2023-08-12T13:50:10;27.10;99.90
15819;DHT22;8010;53.986;12.106;2023-08-12T13:52:36;27.00;99.90
15819;DHT22;8010;53.986;12.106;2023-08-12T13:55:03;27.00;99.90
15819;DHT22;8010;53.986;12.106;2023-08-12T13:57:29;26.90;99.90
15819;DHT22;8010;53.986;12.106;2023-08-12T13:59:55;26.80;99.90
15819;DHT22;8010;53.986;12.106;2023-08-12T14:02:20;26.80;99.90
15819;DHT22;8010;53.986;12.106;2023-08-12T14:04:46;26.80;99.90
15819;DHT22;8010;53.986;12.106;2023-08-12T14:07:11;26.60;99.90
15819;DHT22;8010;53.986;12.106;2023-08-12T14:09:37;26.70;99.90
15819;DHT22;8010;53.986;12.106;2023-08-12T14:12:02;26.70;99.90
15819;DHT22;8010;53.986;12.106;2023-08-12T14:14:30;26.60;99.90
15819;DHT22;8010;53.986;12.106;2023-08-12T14:16:56;26.50;99.90
15819;DHT22;8010;53.986;12.106;2023-08-12T14:19:21;26.30;99.90
15819;DHT22;8010;53.986;12.106;2023-08-12T14:21:47;26.50;99.90
15819;DHT22;8010;53.986;12.106;2023-08-12T14:24:13;26.20;99.90
15819;DHT22;8010;53.986;12.106;2023-08-12T14:26:39;25.90;99.90
15819;DHT22;8010;53.986;12.106;2023-08-12T14:29:05;25.80;99.90
15819;DHT22;8010;53.986;12.106;2023-08-12T14:31:30;25.80;99.90
15819;DHT22;8010;53.986;12.106;2023-08-12T14:33:56;25.70;99.90
15819;DHT22;8010;53.986;12.106;2023-08-12T14:36:22;25.70;99.90
15819;DHT22;8010;53.986;12.106;2023-08-12T14:38:50;25.60;99.90
15819;DHT22;8010;53.986;12.106;2023-08-12T14:41:15;25.50;99.90
15819;DHT22;8010;53.986;12.106;2023-08-12T14:43:41;25.50;99.90
15819;DHT22;8010;53.986;12.106;2023-08-12T14:46:06;25.50;99.90
15819;DHT22;8010;53.986;12.106;2023-08-12T14:48:32;25.40;99.90
15819;DHT22;8010;53.986;12.106;2023-08-12T14:50:57;25.40;99.90
15819;DHT22;8010;53.986;12.106;2023-08-12T14:53:25;25.30;99.90
15819;DHT22;8010;53.986;12.106;2023-08-12T14:55:51;25.20;99.90
15819;DHT22;8010;53.986;12.106;2023-08-12T14:58:16;25.20;99.90
15819;DHT22;8010;53.986;12.106;2023-08-12T15:00:42;25.10;99.90
15819;DHT22;8010;53.986;12.106;2023-08-12T15:03:07;25.00;99.90
15819;DHT22;8010;53.986;12.106;2023-08-12T15:05:33;25.00;99.90
15819;DHT22;8010;53.986;12.106;2023-08-12T15:07:58;24.90;99.90
15819;DHT22;8010;53.986;12.106;2023-08-12T15:10:24;24.80;99.90
15819;DHT22;8010;53.986;12.106;2023-08-12T15:12:49;24.80;99.90
15819;DHT22;8010;53.986;12.106;2023-08-12T15:15:15;24.80;99.90
15819;DHT22;8010;53.986;12.106;2023-08-12T15:17:40;24.90;99.90
15819;DHT22;8010;53.986;12.106;2023-08-12T15:20:07;25.20;99.90
15819;DHT22;8010;53.986;12.106;2023-08-12T15:22:32;25.70;99.90
15819;DHT22;8010;53.986;12.106;2023-08-12T15:24:58;26.30;99.90
15819;DHT22;8010;53.986;12.106;2023-08-12T15:27:24;26.50;99.90
15819;DHT22;8010;53.986;12.106;2023-08-12T15:29:49;26.50;99.90
15819;DHT22;8010;53.986;12.106;2023-08-12T15:32:15;26.30;99.90
15819;DHT22;8010;53.986;12.106;2023-08-12T15:34:40;25.40;99.90
15819;DHT22;8010;53.986;12.106;2023-08-12T15:37:06;25.60;99.90